Time;durP1;ratioP1;P1;durP2;ratioP2;P2;SDS_P1;SDS_P2;PMS_P1;PMS_P2;Temp;Humidity;BMP_temperature;BMP_pressure;BME280_temperature;BME280_humidity;BME280_pressure;Samples;Min_cycle;Max_cycle;Signal;HPM_P1;HPM_P2
2021/01/26 00:01:22;;;;;;;23.50;17.50;;;3.00;88.80;;;;;;5031419;28;20203;-62
2021/01/26 00:03:49;;;;;;;20.87;15.37;;;3.00;88.90;;;;;;5030928;28;20694;-62
2021/01/26 00:06:16;;;;;;;25.80;17.83;;;3.00;89.00;;;;;;5031747;28;20222;-62
2021/01/26 00:08:42;;;;;;;25.40;18.53;;;2.90;89.10;;;;;;5031266;28;20257;-62
2021/01/26 00:11:09;;;;;;;24.77;17.40;;;2.90;89.20;;;;;;5032085;28;20200;-62
2021/01/26 00:13:36;;;;;;;26.43;18.10;;;2.90;89.30;;;;;;5032276;28;20218;-61
2021/01/26 00:16:04;;;;;;;24.30;18.57;;;2.90;89.40;;;;;;5031971;28;20203;-62
2021/01/26 00:18:31;;;;;;;24.37;17.80;;;2.90;89.50;;;;;;5032161;28;20218;-61
2021/01/26 00:20:59;;;;;;;22.73;16.80;;;2.90;89.50;;;;;;5032881;28;20202;-61
2021/01/26 00:23:26;;;;;;;22.17;17.10;;;2.90;89.50;;;;;;5032019;28;20262;-62
2021/01/26 00:25:52;;;;;;;22.80;16.40;;;2.90;89.40;;;;;;5016045;28;20204;-62
2021/01/26 00:28:19;;;;;;;21.10;16.00;;;2.90;89.40;;;;;;5014814;28;20241;-62
2021/01/26 00:30:46;;;;;;;21.70;15.57;;;2.90;89.30;;;;;;5016107;28;20573;-61
2021/01/26 00:33:21;;;;;;;20.90;15.07;;;2.90;89.30;;;;;;5032971;28;20218;-62
2021/01/26 00:35:48;;;;;;;22.00;14.77;;;2.80;89.30;;;;;;5032138;28;20210;-62
2021/01/26 00:38:14;;;;;;;20.90;14.73;;;2.80;89.30;;;;;;5027739;28;20207;-61
2021/01/26 00:40:41;;;;;;;18.33;14.80;;;2.80;89.30;;;;;;5032290;28;20227;-61
2021/01/26 00:43:10;;;;;;;20.40;14.80;;;2.70;89.20;;;;;;5031528;28;20230;-62
2021/01/26 00:45:37;;;;;;;22.63;14.57;;;2.70;89.20;;;;;;5032703;28;20608;-61
2021/01/26 00:48:04;;;;;;;22.20;15.17;;;2.70;89.20;;;;;;5034950;28;20207;-62
2021/01/26 00:50:33;;;;;;;18.93;14.73;;;2.70;89.30;;;;;;5035350;28;20203;-61
2021/01/26 00:53:00;;;;;;;21.67;15.20;;;2.70;89.30;;;;;;5035073;28;20207;-62
2021/01/26 00:55:27;;;;;;;22.43;15.23;;;2.60;89.30;;;;;;5036529;28;20234;-62
2021/01/26 00:57:54;;;;;;;18.80;14.67;;;2.60;89.30;;;;;;5035107;28;20611;-61
2021/01/26 01:00:25;;;;;;;18.57;13.00;;;2.60;89.30;;;;;;5034029;28;20210;-62
2021/01/26 01:02:51;;;;;;;20.77;14.67;;;2.50;89.30;;;;;;5026939;28;20207;-62
2021/01/26 01:05:19;;;;;;;17.60;13.47;;;2.50;89.30;;;;;;5017230;28;20318;-62
2021/01/26 01:07:46;;;;;;;17.43;13.23;;;2.50;89.20;;;;;;4998363;28;20218;-61
2021/01/26 01:10:17;;;;;;;20.70;14.13;;;2.50;89.30;;;;;;5014902;28;20215;-62
2021/01/26 01:12:44;;;;;;;20.93;13.93;;;2.50;89.30;;;;;;5009131;28;20227;-62
2021/01/26 01:15:12;;;;;;;17.73;13.90;;;2.40;89.10;;;;;;5016700;28;20541;-62
2021/01/26 01:17:39;;;;;;;17.00;13.83;;;2.40;89.20;;;;;;5013731;28;20508;-62
2021/01/26 01:20:08;;;;;;;16.27;13.33;;;2.40;89.30;;;;;;5013632;28;20550;-61
2021/01/26 01:22:35;;;;;;;20.07;12.87;;;2.30;89.20;;;;;;5016693;28;20216;-62
2021/01/26 01:25:03;;;;;;;16.90;12.80;;;2.20;89.30;;;;;;5014451;28;20247;-62
2021/01/26 01:27:30;;;;;;;15.97;12.43;;;2.20;89.40;;;;;;5006653;28;20207;-62
2021/01/26 01:29:57;;;;;;;17.17;12.37;;;2.20;89.50;;;;;;5014867;28;20212;-62
2021/01/26 01:32:23;;;;;;;18.63;10.97;;;2.20;89.60;;;;;;4996171;28;20223;-62
2021/01/26 01:34:50;;;;;;;17.03;11.23;;;2.20;89.50;;;;;;5014318;28;20260;-62
2021/01/26 01:37:16;;;;;;;15.90;11.87;;;2.20;89.50;;;;;;4997984;28;20258;-62
2021/01/26 01:39:44;;;;;;;14.27;11.00;;;2.20;89.40;;;;;;5013934;28;20274;-62
2021/01/26 01:42:12;;;;;;;14.80;11.53;;;2.20;89.30;;;;;;5014562;28;20610;-62
2021/01/26 01:44:39;;;;;;;14.50;11.00;;;2.20;89.30;;;;;;5014178;28;20656;-61
2021/01/26 01:47:11;;;;;;;14.03;10.13;;;2.20;89.10;;;;;;5013573;28;20282;-61
2021/01/26 01:49:42;;;;;;;14.90;10.00;;;2.20;89.10;;;;;;5020137;28;20211;-62
2021/01/26 01:52:17;;;;;;;17.63;10.30;;;2.20;89.00;;;;;;5023442;28;20230;-61
2021/01/26 01:54:55;;;;;;;13.73;9.60;;;2.20;88.90;;;;;;5007930;28;20317;-62
2021/01/26 01:57:53;;;;;;;13.63;9.63;;;2.20;88.80;;;;;;5018071;28;20567;-62
2021/01/26 02:00:21;;;;;;;12.97;9.67;;;2.20;88.70;;;;;;5009068;28;20204;-61
2021/01/26 02:03:09;;;;;;;14.93;9.93;;;2.10;88.60;;;;;;5014180;28;20208;-62
2021/01/26 02:05:35;;;;;;;13.80;8.93;;;2.10;88.40;;;;;;5011337;28;20501;-62
2021/01/26 02:08:06;;;;;;;13.10;8.97;;;2.10;88.40;;;;;;5013906;28;20204;-60
2021/01/26 02:10:32;;;;;;;11.07;8.03;;;2.10;88.90;;;;;;5012806;28;20207;-61
2021/01/26 02:12:59;;;;;;;11.57;8.47;;;2.10;88.10;;;;;;5013807;28;20523;-61
2021/01/26 02:15:26;;;;;;;12.10;8.53;;;2.10;88.00;;;;;;5012738;28;20659;-61
2021/01/26 02:17:58;;;;;;;9.83;6.77;;;2.00;87.90;;;;;;5013875;28;20208;-61
2021/01/26 02:20:50;;;;;;;13.63;8.90;;;2.00;87.80;;;;;;5016084;28;20204;-61
2021/01/26 02:23:22;;;;;;;11.73;7.87;;;2.00;87.70;;;;;;5014981;28;20722;-61
2021/01/26 02:26:05;;;;;;;10.43;7.67;;;2.00;87.50;;;;;;5014359;28;20217;-61
2021/01/26 02:28:51;;;;;;;12.47;7.90;;;2.00;87.20;;;;;;5013223;28;20212;-61
2021/01/26 02:31:43;;;;;;;9.97;7.50;;;2.00;87.10;;;;;;5003213;28;20549;-61
2021/01/26 02:34:54;;;;;;;9.50;7.33;;;2.00;87.00;;;;;;5014168;28;20636;-61
2021/01/26 02:37:59;;;;;;;10.30;7.40;;;2.00;86.80;;;;;;5019077;28;20682;-61
2021/01/26 02:40:34;;;;;;;10.67;7.50;;;1.90;86.70;;;;;;5006268;28;20211;-61
2021/01/26 02:43:18;;;;;;;12.30;8.40;;;1.90;86.60;;;;;;5007706;28;20231;-61
2021/01/26 02:46:09;;;;;;;14.00;7.90;;;1.90;86.50;;;;;;5006687;28;20545;-61
2021/01/26 02:49:05;;;;;;;8.67;7.20;;;1.90;86.50;;;;;;5017595;28;20219;-61
2021/01/26 02:51:31;;;;;;;9.60;7.03;;;1.80;86.40;;;;;;5020967;28;20211;-61
2021/01/26 02:54:06;;;;;;;11.47;7.73;;;1.80;86.40;;;;;;5014112;28;20215;-61
2021/01/26 02:56:46;;;;;;;10.53;7.27;;;1.80;86.40;;;;;;5020372;28;20531;-61
2021/01/26 02:59:16;;;;;;;11.00;7.40;;;1.80;86.20;;;;;;5010758;28;20215;-61
2021/01/26 03:02:03;;;;;;;9.50;6.90;;;1.80;86.10;;;;;;4995573;28;20821;-61
2021/01/26 03:04:42;;;;;;;9.20;7.07;;;1.90;86.00;;;;;;5012226;28;20301;-61
2021/01/26 03:07:10;;;;;;;9.30;7.30;;;1.90;85.80;;;;;;4996595;28;20204;-61
2021/01/26 03:09:43;;;;;;;11.40;6.90;;;1.80;85.70;;;;;;5011234;28;20251;-61
2021/01/26 03:12:24;;;;;;;10.80;6.10;;;1.80;85.50;;;;;;5008122;28;20205;-61
2021/01/26 03:15:14;;;;;;;9.57;6.27;;;1.80;85.40;;;;;;5013243;28;20663;-61
2021/01/26 03:18:00;;;;;;;8.13;6.20;;;1.80;85.40;;;;;;5004514;28;20656;-61
2021/01/26 03:20:40;;;;;;;8.57;6.03;;;1.80;85.30;;;;;;5007102;28;20579;-61
2021/01/26 03:23:21;;;;;;;8.87;6.37;;;1.80;85.20;;;;;;5013678;28;20631;-61
2021/01/26 03:25:53;;;;;;;6.23;5.60;;;1.70;85.20;;;;;;5012634;28;20203;-61
2021/01/26 03:28:24;;;;;;;7.73;5.73;;;1.70;85.20;;;;;;5011703;28;20204;-61
2021/01/26 03:30:54;;;;;;;7.53;5.27;;;1.70;85.20;;;;;;5008909;28;20207;-61
2021/01/26 03:33:34;;;;;;;8.20;6.47;;;1.60;85.30;;;;;;5013658;28;20203;-61
2021/01/26 03:36:02;;;;;;;8.67;5.90;;;1.60;85.50;;;;;;5016130;28;20211;-61
2021/01/26 03:38:30;;;;;;;7.63;5.37;;;1.50;85.60;;;;;;5012017;28;20535;-61
2021/01/26 03:41:00;;;;;;;6.37;4.83;;;1.50;85.80;;;;;;5015110;28;20215;-61
2021/01/26 03:43:28;;;;;;;6.77;4.27;;;1.40;85.80;;;;;;5004504;28;20227;-61
2021/01/26 03:46:06;;;;;;;5.93;4.50;;;1.40;85.70;;;;;;5015941;28;20207;-61
2021/01/26 03:48:56;;;;;;;5.37;4.23;;;1.40;85.70;;;;;;5011676;28;20282;-61
2021/01/26 03:51:35;;;;;;;6.17;4.37;;;1.40;85.70;;;;;;5015177;28;20204;-61
2021/01/26 03:54:34;;;;;;;5.30;4.40;;;1.40;85.60;;;;;;5019191;28;20215;-61
2021/01/26 03:57:19;;;;;;;5.13;3.77;;;1.40;85.50;;;;;;5021537;28;20654;-61
2021/01/26 04:00:20;;;;;;;6.23;4.20;;;1.40;85.30;;;;;;5011050;28;20212;-61
2021/01/26 04:03:00;;;;;;;4.33;3.87;;;1.30;85.20;;;;;;4999731;28;20226;-61
2021/01/26 04:06:01;;;;;;;7.13;3.37;;;1.30;85.10;;;;;;5010216;28;20698;-61
2021/01/26 04:09:05;;;;;;;5.73;3.67;;;1.30;84.90;;;;;;5015271;28;20538;-61
2021/01/26 04:11:40;;;;;;;6.17;4.00;;;1.30;84.70;;;;;;5010807;28;20338;-61
2021/01/26 04:14:21;;;;;;;5.07;3.17;;;1.30;84.60;;;;;;5012552;28;20650;-61
2021/01/26 04:16:59;;;;;;;4.00;2.67;;;1.30;84.60;;;;;;5008495;28;20207;-61
2021/01/26 04:19:33;;;;;;;3.87;3.17;;;1.30;84.60;;;;;;5009777;28;20207;-61
2021/01/26 04:22:01;;;;;;;5.17;3.03;;;1.30;84.50;;;;;;5027400;28;20216;-61
2021/01/26 04:24:32;;;;;;;4.10;2.87;;;1.30;84.50;;;;;;5015854;28;20220;-61
2021/01/26 04:27:02;;;;;;;3.43;2.47;;;1.30;84.50;;;;;;5015185;28;20247;-61
2021/01/26 04:29:29;;;;;;;5.20;2.50;;;1.30;84.40;;;;;;5012544;28;20538;-61
2021/01/26 04:31:55;;;;;;;3.17;2.57;;;1.20;84.20;;;;;;5005803;28;20656;-61
2021/01/26 04:34:23;;;;;;;3.30;2.93;;;1.30;84.20;;;;;;4995161;28;20208;-61
2021/01/26 04:36:49;;;;;;;3.50;3.00;;;1.30;84.00;;;;;;5014104;28;20215;-62
2021/01/26 04:39:16;;;;;;;3.43;2.43;;;1.30;84.00;;;;;;5004505;28;20680;-62
2021/01/26 04:42:15;;;;;;;4.20;2.83;;;1.20;83.90;;;;;;5015738;28;20226;-62
2021/01/26 04:44:54;;;;;;;2.87;2.13;;;1.20;84.00;;;;;;5017770;28;20227;-62
2021/01/26 04:47:30;;;;;;;4.20;2.77;;;1.20;83.80;;;;;;5001689;28;20210;-62
2021/01/26 04:50:03;;;;;;;3.03;2.40;;;1.20;83.70;;;;;;5016474;28;20215;-62
2021/01/26 04:52:53;;;;;;;4.07;2.73;;;1.20;83.70;;;;;;5000191;28;20211;-62
2021/01/26 04:55:45;;;;;;;3.30;2.57;;;1.20;83.50;;;;;;5013292;28;20212;-62
2021/01/26 04:58:32;;;;;;;3.93;2.50;;;1.20;83.40;;;;;;5018180;28;20203;-62
2021/01/26 05:01:54;;;;;;;4.20;2.40;;;1.20;83.30;;;;;;5015615;28;20295;-61
2021/01/26 05:04:27;;;;;;;3.07;2.40;;;1.20;83.10;;;;;;5011199;28;20249;-62
2021/01/26 05:07:11;;;;;;;3.23;2.33;;;1.20;83.00;;;;;;5011305;28;20561;-62
2021/01/26 05:10:02;;;;;;;4.43;2.30;;;1.20;82.90;;;;;;5021340;28;20216;-62
2021/01/26 05:12:38;;;;;;;2.67;2.17;;;1.20;82.80;;;;;;5013935;28;20207;-62
2021/01/26 05:15:08;;;;;;;3.17;2.00;;;1.20;82.80;;;;;;5017739;28;20220;-62
2021/01/26 05:17:41;;;;;;;3.03;2.10;;;1.10;82.70;;;;;;5014917;28;20236;-62
2021/01/26 05:20:08;;;;;;;2.53;2.10;;;1.10;82.70;;;;;;5021686;28;20218;-62
2021/01/26 05:22:54;;;;;;;2.83;2.10;;;1.10;82.70;;;;;;5016217;28;20230;-61
2021/01/26 05:25:23;;;;;;;6.43;3.00;;;1.10;82.70;;;;;;5016963;28;20226;-62
2021/01/26 05:27:50;;;;;;;5.10;3.47;;;1.10;82.70;;;;;;5017175;28;20218;-62
2021/01/26 05:30:30;;;;;;;4.00;3.20;;;1.10;82.60;;;;;;5015130;28;20626;-62
2021/01/26 05:32:58;;;;;;;3.70;3.03;;;1.10;82.50;;;;;;4996349;28;20295;-62
2021/01/26 05:35:25;;;;;;;3.90;2.57;;;1.10;82.50;;;;;;5013957;28;20298;-62
2021/01/26 05:37:54;;;;;;;3.37;2.33;;;1.00;82.40;;;;;;5013337;28;20223;-62
2021/01/26 05:40:26;;;;;;;4.50;2.27;;;1.00;82.40;;;;;;5016600;28;20212;-62
2021/01/26 05:43:02;;;;;;;2.57;2.23;;;1.00;82.40;;;;;;5019947;28;20545;-62
2021/01/26 05:45:45;;;;;;;5.07;2.10;;;1.00;82.50;;;;;;5015194;28;20660;-62
2021/01/26 05:48:14;;;;;;;4.13;2.30;;;1.00;82.50;;;;;;4994131;28;20208;-63
2021/01/26 05:50:42;;;;;;;2.00;1.80;;;0.90;82.50;;;;;;5020182;28;20211;-62
2021/01/26 05:53:30;;;;;;;3.40;2.20;;;0.90;82.50;;;;;;5017006;28;20215;-62
2021/01/26 05:56:16;;;;;;;2.97;2.03;;;0.90;82.60;;;;;;5010160;28;20212;-63
2021/01/26 05:58:47;;;;;;;4.40;2.17;;;0.90;82.60;;;;;;4992296;28;20211;-62
2021/01/26 06:01:23;;;;;;;3.17;1.87;;;0.90;82.60;;;;;;5013841;28;20200;-63
2021/01/26 06:04:14;;;;;;;1.90;1.67;;;0.90;82.70;;;;;;5006846;28;20231;-62
2021/01/26 06:06:50;;;;;;;4.67;1.93;;;0.90;83.50;;;;;;5011584;28;20200;-62
2021/01/26 06:09:32;;;;;;;2.23;1.93;;;0.90;82.90;;;;;;5018011;28;20211;-62
2021/01/26 06:12:15;;;;;;;3.83;1.73;;;0.80;82.90;;;;;;5002505;28;20207;-62
2021/01/26 06:14:45;;;;;;;3.60;1.80;;;0.80;83.00;;;;;;5009654;28;20220;-63
2021/01/26 06:17:27;;;;;;;1.60;1.50;;;0.80;83.00;;;;;;5010051;28;20207;-61
2021/01/26 06:20:13;;;;;;;2.57;1.70;;;0.80;83.10;;;;;;5010265;28;20651;-62
2021/01/26 06:22:40;;;;;;;3.33;1.60;;;0.80;83.20;;;;;;5012385;28;20536;-62
2021/01/26 06:25:17;;;;;;;3.63;2.40;;;0.80;83.20;;;;;;4994502;28;20236;-63
2021/01/26 06:27:44;;;;;;;1.90;1.50;;;0.80;83.20;;;;;;5005856;28;20226;-62
2021/01/26 06:30:42;;;;;;;1.97;1.63;;;0.80;83.20;;;;;;5006796;28;20293;-62
2021/01/26 06:33:22;;;;;;;2.20;1.77;;;0.80;83.20;;;;;;5009275;28;20208;-62
2021/01/26 06:36:10;;;;;;;2.57;2.00;;;0.80;83.10;;;;;;5014007;28;20634;-61
2021/01/26 06:38:58;;;;;;;2.63;1.93;;;0.80;83.10;;;;;;5012424;28;20215;-62
2021/01/26 06:41:45;;;;;;;2.63;1.77;;;0.80;83.10;;;;;;5019569;28;20211;-62
2021/01/26 06:44:37;;;;;;;3.30;1.80;;;0.80;83.20;;;;;;5015289;28;20222;-62
2021/01/26 06:47:04;;;;;;;3.73;2.17;;;0.80;83.10;;;;;;5000044;28;20302;-62
2021/01/26 06:49:34;;;;;;;3.93;1.77;;;0.80;83.10;;;;;;5017233;28;20199;-62
2021/01/26 06:52:03;;;;;;;2.70;2.33;;;0.80;83.10;;;;;;5010647;28;20657;-62
2021/01/26 06:54:36;;;;;;;4.13;2.03;;;0.80;83.40;;;;;;5012750;28;20222;-62
2021/01/26 06:57:51;;;;;;;2.87;1.97;;;0.90;83.60;;;;;;5019610;28;20228;-62
2021/01/26 07:00:20;;;;;;;2.90;1.97;;;0.90;83.60;;;;;;4979938;28;20221;-62
2021/01/26 07:03:15;;;;;;;3.23;2.10;;;1.00;83.60;;;;;;5009273;28;20211;-62
2021/01/26 07:06:00;;;;;;;4.13;2.77;;;1.10;83.50;;;;;;4987830;28;20228;-61
2021/01/26 07:08:45;;;;;;;3.27;2.10;;;1.20;83.10;;;;;;4993834;28;20227;-62
2021/01/26 07:11:49;;;;;;;3.07;2.03;;;1.30;82.80;;;;;;4992823;28;20271;-62
2021/01/26 07:14:40;;;;;;;10.77;3.03;;;1.40;82.60;;;;;;4993788;28;20303;-62
2021/01/26 07:17:08;;;;;;;3.90;2.57;;;1.50;82.50;;;;;;4992091;28;20656;-62
2021/01/26 07:20:05;;;;;;;4.97;2.27;;;1.70;82.60;;;;;;4992305;28;20252;-62
2021/01/26 07:23:03;;;;;;;12.03;2.50;;;1.90;82.40;;;;;;4991861;28;20212;-62
2021/01/26 07:25:39;;;;;;;5.53;2.30;;;2.10;81.90;;;;;;4993603;28;20232;-62
2021/01/26 07:28:38;;;;;;;3.13;2.20;;;2.30;81.50;;;;;;4992522;28;20208;-62
2021/01/26 07:31:13;;;;;;;12.63;2.87;;;2.60;81.00;;;;;;4992158;28;20215;-62
2021/01/26 07:34:08;;;;;;;8.67;2.43;;;2.80;80.10;;;;;;4992535;28;20212;-62
2021/01/26 07:37:13;;;;;;;3.87;2.30;;;2.90;79.00;;;;;;4991875;28;20243;-62
2021/01/26 07:39:57;;;;;;;6.10;2.57;;;3.00;77.90;;;;;;4992898;28;20212;-62
2021/01/26 07:42:31;;;;;;;9.53;2.50;;;3.00;77.90;;;;;;4977959;28;20197;-62
2021/01/26 07:45:07;;;;;;;3.67;2.63;;;3.10;77.00;;;;;;4992029;28;20228;-62
2021/01/26 07:47:42;;;;;;;5.43;2.47;;;3.10;76.60;;;;;;4991506;28;20295;-62
2021/01/26 07:50:23;;;;;;;2.43;1.90;;;3.20;77.00;;;;;;4992505;28;20647;-62
2021/01/26 07:52:56;;;;;;;3.30;2.20;;;3.20;76.10;;;;;;4990785;28;20220;-62
2021/01/26 07:55:34;;;;;;;5.30;2.27;;;3.20;76.00;;;;;;4973136;28;20304;-62
2021/01/26 07:58:05;;;;;;;7.93;2.30;;;3.20;75.80;;;;;;4999101;28;20212;-62
2021/01/26 08:00:37;;;;;;;2.57;2.20;;;3.20;75.60;;;;;;5002919;28;20208;-62
2021/01/26 08:03:04;;;;;;;4.30;1.77;;;3.30;75.50;;;;;;4979678;28;20230;-62
2021/01/26 08:05:44;;;;;;;2.70;2.00;;;3.40;75.30;;;;;;5020851;28;20659;-62
2021/01/26 08:08:39;;;;;;;2.90;2.17;;;3.40;75.10;;;;;;5021688;28;20291;-62
2021/01/26 08:11:10;;;;;;;1.97;1.77;;;3.50;74.80;;;;;;5009529;28;20204;-62
2021/01/26 08:14:03;;;;;;;10.50;2.00;;;3.60;75.00;;;;;;5010901;28;20663;-62
2021/01/26 08:16:39;;;;;;;7.47;2.10;;;3.70;74.20;;;;;;5015483;28;20227;-62
2021/01/26 08:19:31;;;;;;;3.30;2.00;;;3.80;74.50;;;;;;5017293;28;20204;-62
2021/01/26 08:22:13;;;;;;;2.60;2.03;;;3.90;73.40;;;;;;5016505;28;20210;-62
2021/01/26 08:24:39;;;;;;;6.13;2.00;;;4.00;73.20;;;;;;5016317;28;20231;-62
2021/01/26 08:27:38;;;;;;;2.50;2.10;;;4.10;73.00;;;;;;5015211;28;20207;-62
2021/01/26 08:30:09;;;;;;;2.37;1.87;;;4.20;72.70;;;;;;5006480;28;20214;-62
2021/01/26 08:32:35;;;;;;;2.93;1.90;;;4.30;72.60;;;;;;5015278;28;20228;-62
2021/01/26 08:35:09;;;;;;;2.67;1.70;;;4.40;72.50;;;;;;5015471;28;20208;-62
2021/01/26 08:37:42;;;;;;;2.17;1.73;;;4.50;72.30;;;;;;5015406;28;20208;-62
2021/01/26 08:40:11;;;;;;;4.33;1.97;;;4.50;72.00;;;;;;5015381;28;20220;-62
2021/01/26 08:42:41;;;;;;;1.90;1.73;;;4.60;71.70;;;;;;5014900;28;22089;-62
2021/01/26 08:45:08;;;;;;;3.63;2.20;;;4.70;71.60;;;;;;5015281;28;20227;-62
2021/01/26 08:47:46;;;;;;;2.00;1.50;;;4.80;71.40;;;;;;5014666;28;20661;-62
2021/01/26 08:50:33;;;;;;;4.73;1.60;;;4.90;71.10;;;;;;5023612;28;20245;-62
2021/01/26 08:53:28;;;;;;;5.10;1.90;;;5.00;70.30;;;;;;5018521;28;20207;-62
2021/01/26 08:55:56;;;;;;;2.73;1.57;;;5.10;70.00;;;;;;5008356;28;20218;-62
2021/01/26 08:58:39;;;;;;;3.47;1.67;;;5.20;69.70;;;;;;5025289;28;20210;-62
2021/01/26 09:01:11;;;;;;;2.07;1.50;;;5.30;69.40;;;;;;5000908;28;20234;-61
2021/01/26 09:03:42;;;;;;;2.13;1.40;;;5.40;69.20;;;;;;5022182;28;20247;-62
2021/01/26 09:06:33;;;;;;;1.93;1.30;;;5.40;68.80;;;;;;5014717;28;20211;-62
2021/01/26 09:09:00;;;;;;;5.13;1.20;;;5.60;68.90;;;;;;5013708;28;20203;-62
2021/01/26 09:11:45;;;;;;;4.90;1.20;;;5.60;68.40;;;;;;5013849;28;20220;-62
2021/01/26 09:14:44;;;;;;;2.77;1.30;;;5.70;68.00;;;;;;5020184;28;20203;-62
2021/01/26 09:17:17;;;;;;;1.97;1.30;;;5.80;67.50;;;;;;5012206;28;20204;-62
2021/01/26 09:20:11;;;;;;;3.63;1.10;;;5.90;67.00;;;;;;5007599;28;20219;-62
2021/01/26 09:22:39;;;;;;;1.33;0.90;;;6.00;66.50;;;;;;5010271;28;20208;-62
2021/01/26 09:25:09;;;;;;;4.43;1.80;;;6.10;66.80;;;;;;5018879;28;20227;-62
2021/01/26 09:27:37;;;;;;;2.07;1.50;;;6.10;66.60;;;;;;5013684;28;20208;-62
2021/01/26 09:30:13;;;;;;;3.10;1.40;;;6.20;66.40;;;;;;5015770;28;20212;-62
2021/01/26 09:32:42;;;;;;;4.20;1.40;;;6.30;66.40;;;;;;5014159;28;20227;-62
2021/01/26 09:35:20;;;;;;;7.90;1.47;;;6.40;66.00;;;;;;5016276;28;20514;-62
2021/01/26 09:37:47;;;;;;;1.97;1.10;;;6.50;64.90;;;;;;5010535;28;20214;-62
2021/01/26 09:40:14;;;;;;;2.10;1.10;;;6.50;64.40;;;;;;5014599;28;20532;-62
2021/01/26 09:42:41;;;;;;;3.43;1.33;;;6.50;63.80;;;;;;4997412;28;20220;-62
2021/01/26 09:45:09;;;;;;;5.87;1.73;;;6.60;63.70;;;;;;5020459;28;20223;-62
2021/01/26 09:47:37;;;;;;;2.27;1.30;;;6.60;63.40;;;;;;5015427;28;20224;-62
2021/01/26 09:50:11;;;;;;;6.33;1.47;;;6.70;63.70;;;;;;5015135;28;20208;-62
2021/01/26 09:52:40;;;;;;;2.10;1.33;;;6.80;64.00;;;;;;5013401;28;20651;-62
2021/01/26 09:55:08;;;;;;;1.37;1.07;;;6.90;64.50;;;;;;5014294;28;20226;-62
2021/01/26 09:57:36;;;;;;;2.53;1.23;;;6.90;64.20;;;;;;5001897;28;20216;-62
2021/01/26 10:00:10;;;;;;;4.77;1.33;;;7.00;63.90;;;;;;5011917;28;20212;-62
2021/01/26 10:02:38;;;;;;;2.10;1.10;;;7.10;63.40;;;;;;5024648;28;20211;-62
2021/01/26 10:05:11;;;;;;;2.00;1.40;;;7.10;62.70;;;;;;5012216;28;20248;-62
2021/01/26 10:07:41;;;;;;;2.30;1.57;;;7.20;61.20;;;;;;5023710;28;20207;-62
2021/01/26 10:10:35;;;;;;;4.83;2.30;;;7.20;61.00;;;;;;5009940;28;20521;-62
2021/01/26 10:13:20;;;;;;;4.63;2.07;;;7.30;61.20;;;;;;5009460;28;20216;-62
2021/01/26 10:15:47;;;;;;;2.73;1.50;;;7.40;61.10;;;;;;5017449;28;20218;-62
2021/01/26 10:18:13;;;;;;;2.23;1.47;;;7.50;61.00;;;;;;5020693;28;20216;-62
2021/01/26 10:20:49;;;;;;;1.77;1.37;;;7.60;60.70;;;;;;5013144;28;20211;-62
2021/01/26 10:23:24;;;;;;;1.53;1.43;;;7.60;60.00;;;;;;5014605;28;20210;-62
2021/01/26 10:25:53;;;;;;;6.70;2.27;;;7.70;59.50;;;;;;5022605;28;20680;-62
2021/01/26 10:28:26;;;;;;;2.03;1.50;;;7.70;59.40;;;;;;5017071;28;20250;-62
2021/01/26 10:30:55;;;;;;;4.77;1.60;;;7.80;59.50;;;;;;5014120;28;20199;-62
2021/01/26 10:33:39;;;;;;;3.37;1.53;;;7.90;59.70;;;;;;5004483;28;20622;-62
2021/01/26 10:36:36;;;;;;;2.80;1.33;;;8.00;60.10;;;;;;5010072;28;20210;-62
2021/01/26 10:39:21;;;;;;;1.87;1.13;;;8.10;59.70;;;;;;5005119;28;20226;-62
2021/01/26 10:41:56;;;;;;;3.37;1.30;;;8.20;59.40;;;;;;5014339;28;20268;-62
2021/01/26 10:44:23;;;;;;;2.43;1.20;;;8.20;59.30;;;;;;5012475;28;20266;-62
2021/01/26 10:46:50;;;;;;;5.00;1.33;;;8.30;59.10;;;;;;5014070;28;20219;-63
2021/01/26 10:49:30;;;;;;;1.93;1.20;;;8.40;58.80;;;;;;5024295;28;20218;-62
2021/01/26 10:52:01;;;;;;;1.60;1.50;;;8.40;58.00;;;;;;5008028;28;20214;-62
2021/01/26 10:54:28;;;;;;;2.97;1.57;;;8.50;58.30;;;;;;5013326;28;20305;-62
2021/01/26 10:56:55;;;;;;;1.73;1.30;;;8.60;58.50;;;;;;5016350;28;20259;-62
2021/01/26 10:59:22;;;;;;;1.97;1.30;;;8.70;57.80;;;;;;5014625;28;20215;-62
2021/01/26 11:01:49;;;;;;;2.03;1.50;;;8.70;57.70;;;;;;5009343;28;20555;-62
2021/01/26 11:04:17;;;;;;;3.23;1.63;;;8.80;58.40;;;;;;5013426;28;20581;-62
2021/01/26 11:06:45;;;;;;;2.77;1.60;;;8.90;58.60;;;;;;5012725;28;20220;-62
2021/01/26 11:09:14;;;;;;;1.43;1.10;;;9.10;58.70;;;;;;5018466;28;20234;-62
2021/01/26 11:11:44;;;;;;;4.07;1.87;;;9.20;58.30;;;;;;5004683;28;20239;-62
2021/01/26 11:14:11;;;;;;;2.13;1.57;;;9.20;57.80;;;;;;5010062;28;20278;-62
2021/01/26 11:16:38;;;;;;;1.80;1.13;;;9.30;57.90;;;;;;5012676;28;20210;-62
2021/01/26 11:19:05;;;;;;;2.63;1.57;;;9.40;57.70;;;;;;5023362;28;20214;-62
2021/01/26 11:21:32;;;;;;;1.97;1.37;;;9.50;58.00;;;;;;5018225;28;20214;-62
2021/01/26 11:23:59;;;;;;;2.93;1.37;;;9.60;57.90;;;;;;5016030;28;20622;-62
2021/01/26 11:26:26;;;;;;;3.70;1.13;;;9.70;57.50;;;;;;5013742;28;20210;-62
2021/01/26 11:28:54;;;;;;;4.07;1.10;;;9.80;57.50;;;;;;5022692;28;20235;-62
2021/01/26 11:31:21;;;;;;;4.60;1.27;;;9.90;57.00;;;;;;5009609;28;20530;-62
2021/01/26 11:33:49;;;;;;;1.90;1.17;;;10.00;56.50;;;;;;4994047;28;20227;-62
2021/01/26 11:36:16;;;;;;;3.77;1.30;;;10.10;56.70;;;;;;5013901;28;20334;-62
2021/01/26 11:38:42;;;;;;;1.40;1.30;;;10.10;56.30;;;;;;5028546;28;20257;-62
2021/01/26 11:41:09;;;;;;;2.13;1.43;;;10.20;55.90;;;;;;5022322;28;20207;-62
2021/01/26 11:43:36;;;;;;;3.37;1.53;;;10.30;56.30;;;;;;5014976;28;20218;-62
2021/01/26 11:46:04;;;;;;;2.00;1.27;;;10.40;55.90;;;;;;5032010;28;20227;-61
2021/01/26 11:48:32;;;;;;;3.37;1.50;;;10.50;55.40;;;;;;5030932;28;20210;-62
2021/01/26 11:50:59;;;;;;;5.97;1.30;;;10.50;55.30;;;;;;5032024;28;20203;-62
2021/01/26 11:53:26;;;;;;;1.73;1.20;;;10.50;54.90;;;;;;5031812;28;20206;-62
2021/01/26 11:55:57;;;;;;;1.53;1.00;;;10.50;54.00;;;;;;5029193;28;20219;-62
2021/01/26 11:58:23;;;;;;;1.27;1.00;;;10.50;52.60;;;;;;5032206;28;20217;-62
2021/01/26 12:00:50;;;;;;;1.53;1.43;;;10.50;53.00;;;;;;5013527;28;20238;-62
2021/01/26 12:03:17;;;;;;;4.40;1.30;;;10.50;52.60;;;;;;5012266;28;20219;-62
2021/01/26 12:05:44;;;;;;;1.33;1.23;;;10.50;52.50;;;;;;5032108;28;20245;-62
2021/01/26 12:08:12;;;;;;;4.07;1.10;;;10.60;53.10;;;;;;5030819;28;20567;-62
2021/01/26 12:10:39;;;;;;;1.97;1.50;;;10.60;52.30;;;;;;5032381;28;20211;-62
2021/01/26 12:13:06;;;;;;;1.07;0.93;;;10.60;52.80;;;;;;5012480;28;20510;-62
2021/01/26 12:15:36;;;;;;;6.53;1.10;;;10.70;53.40;;;;;;5025034;28;20286;-62
2021/01/26 12:18:04;;;;;;;4.13;1.27;;;10.70;52.80;;;;;;5031254;28;20221;-62
2021/01/26 12:20:31;;;;;;;3.97;0.93;;;10.80;53.00;;;;;;5028671;28;20620;-62
2021/01/26 12:22:59;;;;;;;2.23;1.23;;;10.80;53.10;;;;;;5032640;28;20212;-62
2021/01/26 12:25:30;;;;;;;3.90;1.10;;;10.90;53.20;;;;;;5028700;28;20232;-62
2021/01/26 12:27:58;;;;;;;3.63;1.27;;;10.90;51.70;;;;;;5032510;28;20223;-62
2021/01/26 12:30:26;;;;;;;2.07;1.10;;;10.90;51.40;;;;;;5031087;28;20195;-62
2021/01/26 12:32:54;;;;;;;1.20;1.10;;;10.90;50.20;;;;;;5032071;28;20211;-62
2021/01/26 12:35:33;;;;;;;6.90;1.17;;;10.80;49.60;;;;;;5013832;28;20417;-62
2021/01/26 12:38:01;;;;;;;1.30;1.20;;;10.80;48.90;;;;;;5031839;28;20623;-62
2021/01/26 12:40:28;;;;;;;5.67;1.33;;;10.70;49.40;;;;;;5031303;28;20210;-62
2021/01/26 12:42:55;;;;;;;1.93;1.43;;;10.70;48.80;;;;;;5034013;28;20273;-62
2021/01/26 12:45:25;;;;;;;4.27;1.63;;;10.70;49.50;;;;;;5035456;28;20584;-62
2021/01/26 12:47:53;;;;;;;1.27;1.10;;;10.80;51.30;;;;;;5034678;28;20214;-62
2021/01/26 12:50:25;;;;;;;1.53;1.20;;;10.80;50.90;;;;;;5035588;28;20665;-62
2021/01/26 12:52:53;;;;;;;3.20;1.40;;;10.90;50.90;;;;;;5019833;28;20234;-62
2021/01/26 12:55:20;;;;;;;2.33;1.00;;;10.90;50.40;;;;;;5034968;28;20215;-62
2021/01/26 12:57:47;;;;;;;2.90;1.30;;;10.90;51.10;;;;;;5034645;28;20295;-62
2021/01/26 13:00:16;;;;;;;1.60;1.10;;;10.90;51.40;;;;;;5035575;28;20207;-62
2021/01/26 13:02:43;;;;;;;1.40;1.00;;;11.00;51.40;;;;;;5031686;28;20402;-62
2021/01/26 13:05:12;;;;;;;1.07;1.00;;;11.00;50.80;;;;;;5014315;28;20246;-63
2021/01/26 13:07:39;;;;;;;1.67;1.00;;;11.00;51.30;;;;;;5015078;28;20211;-62
2021/01/26 13:10:07;;;;;;;1.63;1.20;;;11.00;50.10;;;;;;5015838;28;20219;-61
2021/01/26 13:12:34;;;;;;;2.77;1.50;;;11.00;49.30;;;;;;5016620;28;20223;-62
2021/01/26 13:15:01;;;;;;;5.37;1.20;;;10.90;49.20;;;;;;5015270;28;20228;-62
2021/01/26 13:17:28;;;;;;;1.27;1.00;;;10.90;49.80;;;;;;5015725;28;20228;-61
2021/01/26 13:19:54;;;;;;;3.53;1.37;;;10.90;48.70;;;;;;5016007;28;20546;-61
2021/01/26 13:22:21;;;;;;;1.40;1.03;;;10.90;47.40;;;;;;5022840;28;20253;-61
2021/01/26 13:24:47;;;;;;;2.00;1.40;;;10.80;47.40;;;;;;5014042;28;20243;-61
2021/01/26 13:27:15;;;;;;;3.67;1.17;;;10.70;47.60;;;;;;5018894;28;20200;-61
2021/01/26 13:29:43;;;;;;;3.17;1.47;;;10.70;48.20;;;;;;5008790;28;20218;-61